Terminal Aerodrome Forecast
Issued by NWS Greer, SC

Home | Current Version | Previous Version | Text Only | Print | Product List | Glossary On
Versions: 1 2 3 4 5 6 7 8 9 10 11 12 13 14 15 16
000
FTUS42 KGSP 291720
TAFGSP
TAF
KGSP 291720Z 2918/3018 21010G17KT P6SM BKN200
     FM300000 22006KT P6SM BKN180
     FM300500 26006KT P6SM BKN080
     FM300800 31008KT P6SM SCT220
     FM301500 33012G20KT P6SM FEW250=

USA.gov is the U.S. government's official web portal to all federal, state and local government web resources and services.